createdAt,value
2023-10-12T00:01:59.066Z,4.38
2023-10-12T00:04:29.092Z,3.78
2023-10-12T00:06:56.229Z,4.95
2023-10-12T00:09:26.061Z,3.97
2023-10-12T00:12:01.715Z,4.85
2023-10-12T00:14:32.526Z,4.78
2023-10-12T00:16:59.300Z,4.57
2023-10-12T00:19:25.717Z,4.43
2023-10-12T00:22:00.765Z,4.40
2023-10-12T00:24:27.702Z,3.97
2023-10-12T00:26:54.610Z,3.63
2023-10-12T00:29:22.096Z,4.93
2023-10-12T00:31:49.413Z,4.30
2023-10-12T00:34:23.449Z,4.80
2023-10-12T00:36:53.100Z,4.15
2023-10-12T00:39:22.526Z,4.65
2023-10-12T00:41:48.962Z,3.95
2023-10-12T00:44:19.370Z,4.63
2023-10-12T00:46:57.776Z,4.78
2023-10-12T00:49:27.512Z,4.38
2023-10-12T00:52:09.233Z,4.13
2023-10-12T00:54:38.519Z,5.20
2023-10-12T00:57:09.779Z,4.20
2023-10-12T00:59:39.835Z,4.00
2023-10-12T01:02:10.268Z,4.00
2023-10-12T01:04:37.938Z,4.57
2023-10-12T01:07:06.981Z,4.97
2023-10-12T01:09:46.070Z,4.78
2023-10-12T01:12:15.041Z,4.25
2023-10-12T01:14:48.517Z,4.60
2023-10-12T01:17:23.675Z,5.03
2023-10-12T01:19:51.957Z,4.90
2023-10-12T01:22:26.336Z,4.55
2023-10-12T01:24:55.206Z,4.20
2023-10-12T01:27:25.648Z,5.10
2023-10-12T01:30:12.390Z,5.03
2023-10-12T01:32:38.252Z,4.72
2023-10-12T01:35:05.358Z,4.93
2023-10-12T01:37:41.985Z,5.25
2023-10-12T01:40:08.845Z,5.25
2023-10-12T01:42:49.745Z,5.07
2023-10-12T01:47:55.718Z,4.85
2023-10-12T01:50:25.442Z,5.00
2023-10-12T01:52:59.063Z,5.32
2023-10-12T01:55:32.714Z,5.60
2023-10-12T01:57:59.304Z,4.90
2023-10-12T02:00:38.698Z,4.80
2023-10-12T02:03:18.790Z,4.72
2023-10-12T02:05:59.773Z,5.38
2023-10-12T02:11:30.924Z,5.25
2023-10-12T02:14:01.494Z,5.68
2023-10-12T02:16:53.478Z,5.82
2023-10-12T02:19:25.177Z,5.00
2023-10-12T02:21:59.958Z,4.63
2023-10-12T02:24:25.848Z,5.43
2023-10-12T02:26:51.614Z,4.75
2023-10-12T02:29:19.006Z,5.07
2023-10-12T02:31:50.234Z,5.38
2023-10-12T02:34:22.097Z,5.93
2023-10-12T02:37:02.382Z,5.47
2023-10-12T02:39:29.485Z,5.80
2023-10-12T02:42:17.553Z,4.95
2023-10-12T02:44:48.036Z,5.55
2023-10-12T02:47:23.253Z,5.40
2023-10-12T02:50:00.892Z,5.15
2023-10-12T02:52:31.927Z,6.07
2023-10-12T02:55:07.605Z,5.60
2023-10-12T02:57:33.786Z,5.38
2023-10-12T03:00:12.697Z,5.15
2023-10-12T03:02:44.426Z,4.95
2023-10-12T03:05:11.677Z,5.47
2023-10-12T03:07:39.466Z,5.78
2023-10-12T03:10:17.542Z,5.60
2023-10-12T03:12:44.713Z,5.68
2023-10-12T03:15:14.104Z,6.47
2023-10-12T03:17:52.824Z,5.30
2023-10-12T03:20:23.013Z,6.10
2023-10-12T03:22:59.381Z,6.13
2023-10-12T03:25:43.378Z,5.18
2023-10-12T03:28:29.543Z,5.65
2023-10-12T03:31:11.408Z,5.40
2023-10-12T03:33:37.303Z,6.10
2023-10-12T03:36:29.516Z,5.90
2023-10-12T03:39:11.702Z,6.57
2023-10-12T03:41:47.140Z,5.63
2023-10-12T03:44:22.412Z,5.90
2023-10-12T03:46:57.248Z,6.07
2023-10-12T03:49:25.995Z,6.25
2023-10-12T03:51:59.958Z,6.10
2023-10-12T03:54:32.838Z,6.35
2023-10-12T03:57:07.192Z,5.95
2023-10-12T04:00:00.291Z,6.13
2023-10-12T04:02:26.443Z,6.28
2023-10-12T04:05:01.171Z,6.88
2023-10-12T04:07:47.293Z,6.15
2023-10-12T04:10:35.932Z,6.53
2023-10-12T04:13:08.378Z,6.68
2023-10-12T04:15:57.183Z,6.70
2023-10-12T04:18:28.978Z,6.00
2023-10-12T04:20:58.265Z,6.10
2023-10-12T04:23:33.718Z,6.60
2023-10-12T04:26:15.454Z,6.75
2023-10-12T04:28:54.077Z,6.38
2023-10-12T04:31:32.050Z,6.78
2023-10-12T04:34:04.736Z,6.13
2023-10-12T04:36:43.987Z,6.80
2023-10-12T04:39:25.982Z,6.35
2023-10-12T04:41:52.343Z,6.85
2023-10-12T04:44:24.279Z,7.47
2023-10-12T04:47:04.590Z,7.95
2023-10-12T04:49:34.945Z,7.22
2023-10-12T04:52:21.819Z,6.82
2023-10-12T04:54:57.811Z,6.88
2023-10-12T04:57:27.468Z,7.00
2023-10-12T05:00:09.581Z,6.47
2023-10-12T05:02:50.868Z,6.63
2023-10-12T05:05:22.233Z,7.07
2023-10-12T05:07:55.360Z,7.68
2023-10-12T05:10:37.732Z,7.30
2023-10-12T05:13:05.550Z,7.53
2023-10-12T05:15:43.291Z,7.57
2023-10-12T05:18:13.477Z,8.30
2023-10-12T05:20:42.989Z,7.03
2023-10-12T05:23:12.682Z,7.57
2023-10-12T05:25:48.625Z,7.88
2023-10-12T05:28:19.231Z,8.73
2023-10-12T05:30:51.358Z,8.23
2023-10-12T05:33:36.341Z,8.40
2023-10-12T05:36:09.742Z,9.57
2023-10-12T05:38:41.096Z,8.40
2023-10-12T05:41:12.015Z,7.57
2023-10-12T05:43:40.804Z,8.48
2023-10-12T05:46:14.271Z,8.50
2023-10-12T05:48:46.854Z,8.50
2023-10-12T05:51:14.968Z,8.77
2023-10-12T05:53:40.960Z,8.80
2023-10-12T05:56:06.981Z,7.97
2023-10-12T05:58:34.826Z,9.25
2023-10-12T06:01:08.723Z,8.98
2023-10-12T06:03:40.425Z,8.43
2023-10-12T06:06:09.825Z,8.88
2023-10-12T06:08:37.757Z,9.52
2023-10-12T06:11:05.099Z,10.32
2023-10-12T06:13:41.171Z,8.73
2023-10-12T06:16:15.343Z,8.85
2023-10-12T06:18:44.994Z,8.00
2023-10-12T06:21:20.317Z,8.32
2023-10-12T06:23:51.000Z,7.57
2023-10-12T06:26:29.329Z,7.90
2023-10-12T06:28:57.391Z,8.32
2023-10-12T06:31:25.520Z,8.05
2023-10-12T06:33:53.165Z,7.88
2023-10-12T06:36:23.391Z,7.35
2023-10-12T06:39:07.984Z,7.10
2023-10-12T06:41:34.516Z,7.10
2023-10-12T06:44:19.757Z,7.38
2023-10-12T06:46:47.061Z,6.60
2023-10-12T06:49:22.477Z,6.85
2023-10-12T06:51:54.411Z,6.55
2023-10-12T06:54:31.887Z,6.53
2023-10-12T06:57:18.199Z,5.80
2023-10-12T07:00:01.104Z,5.60
2023-10-12T07:02:28.376Z,5.95
2023-10-12T07:04:59.041Z,6.15
2023-10-12T07:07:30.554Z,6.10
2023-10-12T07:10:11.795Z,7.15
2023-10-12T07:12:52.096Z,5.90
2023-10-12T07:15:21.659Z,6.72
2023-10-12T07:17:50.734Z,6.28
2023-10-12T07:20:33.277Z,6.32
2023-10-12T07:23:06.445Z,5.90
2023-10-12T07:25:37.939Z,5.55
2023-10-12T07:28:06.133Z,5.25
2023-10-12T07:30:33.829Z,5.45
2023-10-12T07:33:04.797Z,6.57
2023-10-12T07:35:35.268Z,6.65
2023-10-12T07:38:05.876Z,6.43
2023-10-12T07:40:38.257Z,5.78
2023-10-12T07:43:09.041Z,5.97
2023-10-12T07:45:38.758Z,5.80
2023-10-12T07:48:10.358Z,6.70
2023-10-12T07:50:46.080Z,6.20
2023-10-12T07:53:25.023Z,6.00
2023-10-12T07:56:00.839Z,6.03
2023-10-12T07:58:30.016Z,6.20
2023-10-12T08:01:14.975Z,5.82
2023-10-12T08:03:50.436Z,6.85
2023-10-12T08:06:17.556Z,7.07
2023-10-12T08:08:45.763Z,6.53
2023-10-12T08:11:28.228Z,7.38
2023-10-12T08:13:56.113Z,6.05
2023-10-12T08:16:28.974Z,6.60
2023-10-12T08:18:59.084Z,5.63
2023-10-12T08:21:30.914Z,6.40
2023-10-12T08:24:02.400Z,6.38
2023-10-12T08:26:43.313Z,6.65
2023-10-12T08:29:24.850Z,6.05
2023-10-12T08:32:07.151Z,6.43
2023-10-12T08:34:33.378Z,5.85
2023-10-12T08:37:07.551Z,5.93
2023-10-12T08:39:54.159Z,6.00
2023-10-12T08:42:37.398Z,6.93
2023-10-12T08:45:09.816Z,6.60
2023-10-12T08:47:39.640Z,6.30
2023-10-12T08:50:29.527Z,6.85
2023-10-12T08:53:02.631Z,6.63
2023-10-12T08:56:26.425Z,7.00
2023-10-12T08:58:58.294Z,6.47
2023-10-12T09:01:24.298Z,6.40
2023-10-12T09:04:01.372Z,7.28
2023-10-12T09:06:49.856Z,6.72
2023-10-12T09:09:35.640Z,6.68
2023-10-12T09:12:01.703Z,7.78
2023-10-12T09:14:27.749Z,6.82
2023-10-12T09:16:56.648Z,6.97
2023-10-12T09:19:33.003Z,6.82
2023-10-12T09:22:05.074Z,6.63
2023-10-12T09:24:35.755Z,7.40
2023-10-12T09:27:15.069Z,6.93
2023-10-12T09:29:57.672Z,6.80
2023-10-12T09:32:26.787Z,6.50
2023-10-12T09:35:11.110Z,7.22
2023-10-12T09:37:51.704Z,7.47
2023-10-12T09:40:28.288Z,5.68
2023-10-12T09:43:12.810Z,7.15
2023-10-12T09:45:45.549Z,5.70
2023-10-12T09:48:27.768Z,4.38
2023-10-12T09:50:56.488Z,5.45
2023-10-12T09:53:36.092Z,6.25
2023-10-12T09:56:17.244Z,5.35
2023-10-12T09:58:51.038Z,6.28
2023-10-12T10:01:17.844Z,5.40
2023-10-12T10:03:48.309Z,5.85
2023-10-12T10:06:28.747Z,5.55
2023-10-12T10:09:10.345Z,5.07
2023-10-12T10:11:38.293Z,5.13
2023-10-12T10:14:04.199Z,5.35
2023-10-12T10:16:46.455Z,6.45
2023-10-12T10:19:21.531Z,6.45
2023-10-12T10:22:05.369Z,5.30
2023-10-12T10:24:56.308Z,6.63
2023-10-12T10:27:34.355Z,5.65
2023-10-12T10:30:23.844Z,5.63
2023-10-12T10:33:07.267Z,5.55
2023-10-12T10:35:59.204Z,5.82
2023-10-12T10:38:30.618Z,5.30
2023-10-12T10:41:05.895Z,4.75
2023-10-12T10:43:39.872Z,5.40
2023-10-12T10:46:14.279Z,5.05
2023-10-12T10:51:20.193Z,4.93
2023-10-12T10:53:57.995Z,5.47
2023-10-12T10:56:36.099Z,5.60
2023-10-12T10:59:03.119Z,5.45
2023-10-12T11:01:29.049Z,5.50
2023-10-12T11:04:08.582Z,5.65
2023-10-12T11:06:37.487Z,5.18
2023-10-12T11:09:20.115Z,5.55
2023-10-12T11:11:59.570Z,6.43
2023-10-12T11:14:26.583Z,5.70
2023-10-12T11:16:55.163Z,5.63
2023-10-12T11:19:24.077Z,5.47
2023-10-12T11:22:08.088Z,6.13
2023-10-12T11:24:51.615Z,5.28
2023-10-12T11:27:45.277Z,5.72
2023-10-12T11:30:24.819Z,5.85
2023-10-12T11:32:55.239Z,5.05
2023-10-12T11:35:44.373Z,5.63
2023-10-12T11:38:20.942Z,6.43
2023-10-12T11:40:55.516Z,6.03
2023-10-12T11:46:10.855Z,5.30
2023-10-12T11:48:36.860Z,5.70
2023-10-12T11:51:11.700Z,5.38
2023-10-12T11:53:39.229Z,5.43
2023-10-12T11:56:17.641Z,5.65
2023-10-12T11:58:50.971Z,6.03
2023-10-12T12:01:18.762Z,5.05
2023-10-12T12:03:45.912Z,5.10
2023-10-12T12:06:21.857Z,5.45
2023-10-12T12:08:51.853Z,5.50
2023-10-12T12:11:26.705Z,5.03
2023-10-12T12:13:52.649Z,5.25
2023-10-12T12:16:21.839Z,5.10
2023-10-12T12:18:51.817Z,4.93
2023-10-12T12:21:29.499Z,4.88
2023-10-12T12:23:56.907Z,5.95
2023-10-12T12:26:24.760Z,5.47
2023-10-12T12:29:03.070Z,4.95
2023-10-12T12:31:32.791Z,5.10
2023-10-12T12:33:59.450Z,4.80
2023-10-12T12:36:25.307Z,4.50
2023-10-12T12:39:09.492Z,4.25
2023-10-12T12:41:35.362Z,4.75
2023-10-12T12:44:01.560Z,4.45
2023-10-12T12:46:31.404Z,5.13
2023-10-12T12:48:57.479Z,5.20
2023-10-12T12:51:23.670Z,4.90
2023-10-12T12:53:50.972Z,5.03
2023-10-12T12:56:20.134Z,5.10
2023-10-12T12:58:47.020Z,4.55
2023-10-12T13:01:17.769Z,5.55
2023-10-12T13:03:45.167Z,5.25
2023-10-12T13:06:12.502Z,4.53
2023-10-12T13:08:38.835Z,4.90
2023-10-12T13:11:09.662Z,4.82
2023-10-12T13:13:35.903Z,4.18
2023-10-12T13:16:06.293Z,4.75
2023-10-12T13:18:35.557Z,4.53
2023-10-12T13:21:07.016Z,5.15
2023-10-12T13:23:34.209Z,4.50
2023-10-12T13:26:10.384Z,4.75
2023-10-12T13:28:39.223Z,4.57
2023-10-12T13:31:06.681Z,4.63
2023-10-12T13:33:32.914Z,5.03
2023-10-12T13:35:59.253Z,5.10
2023-10-12T13:38:29.686Z,4.43
2023-10-12T13:40:56.887Z,4.53
2023-10-12T13:43:22.824Z,5.30
2023-10-12T13:45:50.372Z,4.40
2023-10-12T13:48:23.119Z,5.18
2023-10-12T13:50:53.721Z,4.75
2023-10-12T13:53:24.760Z,4.30
2023-10-12T13:55:50.913Z,4.43
2023-10-12T13:58:16.916Z,5.38
2023-10-12T14:00:44.018Z,3.97
2023-10-12T14:03:17.923Z,5.10
2023-10-12T14:05:44.664Z,4.60
2023-10-12T14:08:10.931Z,4.15
2023-10-12T14:10:41.607Z,4.88
2023-10-12T14:13:14.137Z,4.15
2023-10-12T14:15:43.938Z,3.75
2023-10-12T14:18:17.108Z,4.78
2023-10-12T14:20:44.790Z,4.18
2023-10-12T14:23:12.049Z,4.18
2023-10-12T14:25:39.451Z,4.22
2023-10-12T14:28:06.627Z,4.63
2023-10-12T14:30:33.851Z,4.43
2023-10-12T14:33:03.081Z,5.22
2023-10-12T14:35:35.790Z,4.25
2023-10-12T14:38:08.360Z,3.70
2023-10-12T14:40:40.733Z,3.92
2023-10-12T14:43:11.525Z,4.68
2023-10-12T14:45:49.113Z,4.10
2023-10-12T14:48:16.693Z,4.15
2023-10-12T14:50:48.034Z,4.63
2023-10-12T14:53:17.309Z,4.72
2023-10-12T14:55:52.336Z,4.20
2023-10-12T14:58:18.732Z,3.92
2023-10-12T15:00:45.170Z,4.85
2023-10-12T15:03:11.813Z,4.50
2023-10-12T15:05:38.492Z,4.20
2023-10-12T15:08:08.037Z,4.57
2023-10-12T15:10:41.298Z,5.28
2023-10-12T15:13:17.063Z,4.78
2023-10-12T15:15:47.880Z,4.38
2023-10-12T15:18:19.990Z,4.85
2023-10-12T15:20:49.360Z,4.72
2023-10-12T15:23:17.198Z,4.90
2023-10-12T15:25:44.355Z,4.53
2023-10-12T15:28:10.633Z,4.63
2023-10-12T15:30:42.639Z,6.10
2023-10-12T15:33:08.777Z,5.07
2023-10-12T15:35:34.734Z,5.78
2023-10-12T15:38:01.769Z,6.18
2023-10-12T15:40:27.887Z,6.40
2023-10-12T15:42:55.760Z,6.63
2023-10-12T15:45:26.612Z,7.32
2023-10-12T15:47:57.327Z,7.18
2023-10-12T15:50:24.052Z,6.88
2023-10-12T15:52:50.787Z,6.78
2023-10-12T15:55:18.869Z,6.65
2023-10-12T15:57:47.341Z,5.90
2023-10-12T16:03:02.324Z,6.15
2023-10-12T16:05:30.027Z,6.32
2023-10-12T16:07:57.296Z,5.93
2023-10-12T16:10:28.374Z,5.03
2023-10-12T16:12:55.915Z,5.28
2023-10-12T16:15:22.119Z,6.32
2023-10-12T16:17:49.304Z,6.20
2023-10-12T16:20:16.295Z,6.35
2023-10-12T16:22:43.306Z,6.40
2023-10-12T16:25:13.750Z,5.57
2023-10-12T16:27:40.372Z,6.18
2023-10-12T16:30:14.786Z,6.07
2023-10-12T16:32:59.492Z,6.53
2023-10-12T16:35:25.462Z,6.57
2023-10-12T16:37:59.647Z,6.15
2023-10-12T16:40:28.896Z,7.28
2023-10-12T16:42:55.470Z,7.47
2023-10-12T16:45:22.997Z,6.90
2023-10-12T16:47:49.046Z,7.38
2023-10-12T16:50:15.563Z,7.50
2023-10-12T16:52:41.449Z,8.55
2023-10-12T16:55:10.210Z,8.18
2023-10-12T16:57:36.067Z,8.90
2023-10-12T17:00:02.126Z,8.05
2023-10-12T17:02:29.712Z,9.63
2023-10-12T17:04:59.900Z,10.18
2023-10-12T17:07:26.521Z,11.10
2023-10-12T17:09:55.832Z,12.00
2023-10-12T17:12:23.392Z,11.20
2023-10-12T17:14:49.993Z,10.80
2023-10-12T17:17:17.384Z,11.77
2023-10-12T17:19:43.193Z,9.90
2023-10-12T17:22:09.061Z,11.95
2023-10-12T17:24:36.242Z,11.27
2023-10-12T17:27:03.290Z,9.68
2023-10-12T17:29:29.114Z,9.68
2023-10-12T17:31:55.129Z,10.77
2023-10-12T17:34:21.116Z,11.20
2023-10-12T17:36:48.249Z,11.15
2023-10-12T17:39:20.549Z,12.60
2023-10-12T17:41:48.124Z,11.55
2023-10-12T17:44:17.285Z,14.02
2023-10-12T17:46:46.761Z,12.98
2023-10-12T17:49:19.165Z,13.80
2023-10-12T17:51:45.812Z,14.63
2023-10-12T17:54:12.676Z,14.88
2023-10-12T17:56:39.750Z,16.45
2023-10-12T17:59:06.509Z,15.07
2023-10-12T18:01:33.374Z,15.18
2023-10-12T18:04:04.078Z,15.52
2023-10-12T18:06:30.784Z,16.15
2023-10-12T18:08:59.284Z,15.57
2023-10-12T18:11:25.718Z,14.10
2023-10-12T18:13:53.052Z,13.82
2023-10-12T18:16:18.979Z,14.85
2023-10-12T18:18:44.909Z,14.30
2023-10-12T18:21:10.825Z,13.25
2023-10-12T18:23:39.814Z,13.35
2023-10-12T18:26:06.260Z,14.88
2023-10-12T18:28:33.406Z,15.18
2023-10-12T18:31:03.755Z,12.68
2023-10-12T18:33:32.931Z,13.05
2023-10-12T18:35:59.876Z,12.45
2023-10-12T18:38:25.719Z,11.95
2023-10-12T18:40:52.285Z,11.73
2023-10-12T18:43:18.561Z,12.55
2023-10-12T18:45:55.336Z,11.32
2023-10-12T18:48:22.308Z,10.40
2023-10-12T18:51:15.099Z,12.82
2023-10-12T18:53:44.415Z,12.13
2023-10-12T18:56:12.245Z,11.32
2023-10-12T18:58:39.729Z,11.13
2023-10-12T19:01:13.680Z,11.45
2023-10-12T19:03:41.262Z,11.10
2023-10-12T19:06:10.468Z,10.57
2023-10-12T19:08:37.490Z,10.77
2023-10-12T19:11:11.028Z,10.85
2023-10-12T19:13:38.445Z,10.45
2023-10-12T19:16:11.230Z,10.80
2023-10-12T19:18:37.064Z,10.95
2023-10-12T19:21:03.135Z,9.98
2023-10-12T19:23:29.323Z,9.25
2023-10-12T19:25:56.905Z,9.40
2023-10-12T19:28:27.022Z,8.90
2023-10-12T19:30:59.256Z,9.77
2023-10-12T19:33:25.805Z,10.02
2023-10-12T19:35:52.241Z,9.88
2023-10-12T19:38:20.748Z,8.95
2023-10-12T19:40:46.605Z,9.93
2023-10-12T19:43:13.467Z,8.35
2023-10-12T19:45:41.726Z,8.38
2023-10-12T19:48:14.184Z,9.30
2023-10-12T19:50:40.888Z,10.05
2023-10-12T19:53:06.696Z,8.85
2023-10-12T19:55:36.477Z,8.43
2023-10-12T19:58:03.581Z,7.90
2023-10-12T20:00:35.979Z,7.45
2023-10-12T20:03:15.894Z,7.35
2023-10-12T20:05:43.074Z,7.60
2023-10-12T20:08:12.105Z,7.53
2023-10-12T20:10:38.461Z,7.25
2023-10-12T20:13:08.410Z,7.13
2023-10-12T20:15:35.445Z,7.93
2023-10-12T20:18:02.309Z,7.80
2023-10-12T20:20:28.261Z,7.90
2023-10-12T20:22:54.091Z,7.45
2023-10-12T20:25:20.028Z,9.35
2023-10-12T20:27:45.944Z,8.38
2023-10-12T20:30:12.699Z,8.90
2023-10-12T20:32:39.331Z,9.07
2023-10-12T20:35:06.230Z,9.52
2023-10-12T20:37:34.371Z,8.85
2023-10-12T20:40:00.678Z,9.30
2023-10-12T20:42:26.544Z,9.65
2023-10-12T20:44:54.932Z,9.25
2023-10-12T20:47:20.881Z,9.70
2023-10-12T20:49:46.754Z,9.15
2023-10-12T20:52:13.010Z,8.85
2023-10-12T20:54:41.808Z,8.85
2023-10-12T20:57:08.403Z,9.43
2023-10-12T20:59:37.199Z,8.95
2023-10-12T21:02:05.157Z,8.55
2023-10-12T21:04:33.898Z,8.68
2023-10-12T21:07:11.356Z,8.68
2023-10-12T21:09:37.276Z,8.85
2023-10-12T21:12:15.469Z,9.02
2023-10-12T21:14:44.938Z,8.95
2023-10-12T21:17:19.399Z,8.60
2023-10-12T21:19:54.332Z,8.68
2023-10-12T21:22:22.961Z,9.23
2023-10-12T21:24:55.983Z,7.80
2023-10-12T21:27:36.263Z,8.52
2023-10-12T21:30:03.907Z,7.97
2023-10-12T21:32:30.102Z,8.57
2023-10-12T21:34:57.132Z,7.63
2023-10-12T21:37:33.024Z,8.10
2023-10-12T21:40:19.696Z,8.13
2023-10-12T21:42:48.679Z,8.02
2023-10-12T21:45:22.420Z,8.68
2023-10-12T21:47:49.152Z,7.68
2023-10-12T21:50:15.218Z,7.60
2023-10-12T21:52:41.068Z,8.18
2023-10-12T21:55:07.656Z,8.23
2023-10-12T21:57:33.702Z,7.68
2023-10-12T21:59:59.783Z,7.38
2023-10-12T22:02:26.733Z,7.47
2023-10-12T22:04:52.778Z,8.25
2023-10-12T22:07:18.822Z,7.63
2023-10-12T22:09:45.876Z,7.70
2023-10-12T22:12:13.867Z,7.97
2023-10-12T22:14:58.362Z,9.20
2023-10-12T22:17:27.151Z,7.28
2023-10-12T22:19:54.202Z,7.95
2023-10-12T22:22:23.396Z,7.88
2023-10-12T22:24:55.388Z,7.50
2023-10-12T22:27:22.676Z,7.00
2023-10-12T22:29:48.463Z,7.43
2023-10-12T22:32:15.102Z,7.80
2023-10-12T22:34:41.232Z,6.85
2023-10-12T22:37:14.020Z,7.63
2023-10-12T22:39:48.842Z,7.15
2023-10-12T22:44:40.924Z,7.38
2023-10-12T22:47:09.321Z,7.40
2023-10-12T22:49:35.585Z,7.22
2023-10-12T22:52:01.771Z,6.75
2023-10-12T22:54:33.771Z,6.57
2023-10-12T22:57:00.000Z,7.35
2023-10-12T22:59:26.138Z,6.05
2023-10-12T23:01:52.168Z,6.70
2023-10-12T23:04:18.027Z,6.82
2023-10-12T23:06:43.860Z,6.53
2023-10-12T23:09:16.969Z,6.80
2023-10-12T23:11:48.367Z,7.82
2023-10-12T23:14:24.443Z,6.03
2023-10-12T23:16:51.255Z,6.40
2023-10-12T23:19:24.268Z,7.13
2023-10-12T23:21:51.788Z,6.72
2023-10-12T23:24:20.401Z,7.10
2023-10-12T23:29:21.092Z,6.88
2023-10-12T23:31:47.363Z,7.13
2023-10-12T23:34:22.364Z,6.40
2023-10-12T23:36:58.733Z,7.30
2023-10-12T23:39:28.584Z,6.53
2023-10-12T23:41:55.349Z,6.72
2023-10-12T23:44:24.694Z,6.82
2023-10-12T23:46:54.117Z,6.25
2023-10-12T23:49:20.591Z,6.18
2023-10-12T23:51:47.746Z,7.43
2023-10-12T23:54:26.272Z,6.75
2023-10-12T23:57:01.153Z,6.47
2023-10-12T23:59:30.758Z,6.13
